ZKTAV NZAR-NZAR

Flight info

Callsign ZKTAV
Flight time 0h 39m
Altitude 2000
Route CLEVEDEN CBD AR
Aircraft C172/L-V/N

Departure

Time 2026-04-25 01:18
Airport Ardmore Airport (NZAR)

Arrival

Time 2026-04-25 01:57
Airport Ardmore Airport (NZAR)
Time Latitude Longitude Altitude Speed Heading
2026-04-25 00:55 -37.03614 174.97026 109 ft 0 kts 226°
2026-04-25 01:00 -37.03614 174.97025 109 ft 0 kts 224°
2026-04-25 01:00 -37.03619 174.97008 109 ft 2 kts 279°
2026-04-25 01:00 -37.03608 174.96991 109 ft 2 kts 314°
2026-04-25 01:01 -37.03597 174.96976 109 ft 2 kts 318°
2026-04-25 01:01 -37.03584 174.96962 109 ft 2 kts 317°
2026-04-25 01:01 -37.03582 174.96959 109 ft 0 kts 315°
2026-04-25 01:01 -37.03581 174.96957 109 ft 0 kts 299°
2026-04-25 01:02 -37.03569 174.96944 109 ft 2 kts 329°
2026-04-25 01:02 -37.03550 174.96956 109 ft 4 kts 45°
2026-04-25 01:02 -37.03534 174.96977 109 ft 3 kts 60°
2026-04-25 01:02 -37.03516 174.97002 109 ft 5 kts 45°
2026-04-25 01:03 -37.03482 174.97046 109 ft 8 kts 44°
2026-04-25 01:03 -37.03439 174.97101 109 ft 9 kts 47°
2026-04-25 01:03 -37.03392 174.97160 109 ft 8 kts 44°
2026-04-25 01:03 -37.03359 174.97201 109 ft 5 kts 44°
2026-04-25 01:04 -37.03333 174.97235 109 ft 4 kts 46°
2026-04-25 01:04 -37.03311 174.97263 109 ft 5 kts 45°
2026-04-25 01:04 -37.03285 174.97296 109 ft 5 kts 49°
2026-04-25 01:04 -37.03256 174.97334 109 ft 6 kts 43°
2026-04-25 01:05 -37.03223 174.97374 109 ft 6 kts 46°
2026-04-25 01:05 -37.03188 174.97420 110 ft 7 kts 43°
2026-04-25 01:05 -37.03149 174.97469 109 ft 8 kts 41°
2026-04-25 01:05 -37.03110 174.97517 110 ft 7 kts 45°
2026-04-25 01:06 -37.03079 174.97556 109 ft 5 kts 46°
2026-04-25 01:06 -37.03059 174.97583 109 ft 3 kts 46°
2026-04-25 01:06 -37.03048 174.97597 109 ft 1 kts 45°
2026-04-25 01:06 -37.03031 174.97620 109 ft 5 kts 49°
2026-04-25 01:07 -37.02998 174.97653 109 ft 7 kts 33°
2026-04-25 01:07 -37.02963 174.97707 110 ft 7 kts 47°
2026-04-25 01:07 -37.02932 174.97745 110 ft 5 kts 45°
2026-04-25 01:07 -37.02904 174.97780 110 ft 5 kts 44°
2026-04-25 01:08 -37.02878 174.97813 109 ft 5 kts 43°
2026-04-25 01:08 -37.02853 174.97844 110 ft 4 kts 41°
2026-04-25 01:08 -37.02830 174.97873 109 ft 4 kts 45°
2026-04-25 01:08 -37.02817 174.97903 109 ft 3 kts 106°
2026-04-25 01:09 -37.02807 174.97928 110 ft 3 kts 28°
2026-04-25 01:09 -37.02805 174.97934 110 ft 0 kts 201°
2026-04-25 01:13 -37.02806 174.97932 110 ft 0 kts 217°
2026-04-25 01:13 -37.02816 174.97932 110 ft 2 kts 158°
2026-04-25 01:14 -37.02820 174.97954 110 ft 3 kts 87°
2026-04-25 01:14 -37.02819 174.97990 110 ft 4 kts 90°
2026-04-25 01:14 -37.02820 174.98036 110 ft 6 kts 90°
2026-04-25 01:14 -37.02819 174.98094 110 ft 6 kts 88°
2026-04-25 01:15 -37.02805 174.98132 109 ft 4 kts
2026-04-25 01:15 -37.02777 174.98123 109 ft 3 kts 333°
2026-04-25 01:15 -37.02761 174.98112 110 ft 1 kts 333°
2026-04-25 01:15 -37.02741 174.98100 110 ft 4 kts 332°
2026-04-25 01:16 -37.02703 174.98076 110 ft 5 kts 332°
2026-04-25 01:16 -37.02676 174.98058 109 ft 4 kts 326°
2026-04-25 01:16 -37.02641 174.98016 110 ft 6 kts 262°
2026-04-25 01:16 -37.02658 174.97990 110 ft 11 kts 225°
2026-04-25 01:17 -37.02860 174.97736 130 ft 62 kts 227°
2026-04-25 01:17 -37.03196 174.97313 296 ft 73 kts 227°
2026-04-25 01:17 -37.03558 174.96829 476 ft 79 kts 229°
2026-04-25 01:17 -37.03925 174.96306 686 ft 80 kts 220°
2026-04-25 01:18 -37.04424 174.96266 936 ft 77 kts 150°
2026-04-25 01:18 -37.04904 174.96640 1071 ft 89 kts 132°
2026-04-25 01:18 -37.04888 174.97456 1060 ft 108 kts 62°
2026-04-25 01:18 -37.04484 174.98225 1116 ft 104 kts 53°
2026-04-25 01:19 -37.04048 174.98946 1147 ft 103 kts 53°
2026-04-25 01:19 -37.03605 174.99664 1168 ft 105 kts 50°
2026-04-25 01:19 -37.03015 175.00203 1331 ft 103 kts 21°
2026-04-25 01:19 -37.02289 175.00326 1410 ft 111 kts 356°
2026-04-25 01:20 -37.01526 175.00192 1425 ft 109 kts 349°
2026-04-25 01:20 -37.00790 174.99991 1443 ft 107 kts 347°
2026-04-25 01:20 -37.00057 174.99791 1414 ft 110 kts 347°
2026-04-25 01:20 -36.99303 174.99573 1414 ft 109 kts 345°
2026-04-25 01:21 -36.98574 174.99332 1408 ft 109 kts 343°
2026-04-25 01:21 -36.97850 174.99056 1415 ft 108 kts 342°
2026-04-25 01:21 -36.97127 174.98772 1409 ft 108 kts 342°
2026-04-25 01:21 -36.96410 174.98491 1415 ft 107 kts 342°
2026-04-25 01:22 -36.95683 174.98222 1385 ft 110 kts 343°
2026-04-25 01:22 -36.94960 174.97946 1413 ft 107 kts 342°
2026-04-25 01:22 -36.94251 174.97665 1404 ft 108 kts 341°
2026-04-25 01:22 -36.93543 174.97337 1421 ft 106 kts 336°
2026-04-25 01:23 -36.92868 174.96954 1411 ft 108 kts 334°
2026-04-25 01:23 -36.92176 174.96556 1403 ft 108 kts 336°
2026-04-25 01:23 -36.91473 174.96210 1415 ft 108 kts 340°
2026-04-25 01:23 -36.90760 174.95897 1414 ft 109 kts 341°
2026-04-25 01:24 -36.90042 174.95572 1423 ft 108 kts 339°
2026-04-25 01:24 -36.89345 174.95201 1424 ft 109 kts 332°
2026-04-25 01:24 -36.88709 174.94684 1391 ft 112 kts 322°
2026-04-25 01:24 -36.88127 174.94054 1419 ft 108 kts 315°
2026-04-25 01:25 -36.87608 174.93387 1449 ft 106 kts 312°
2026-04-25 01:25 -36.87097 174.92686 1426 ft 109 kts 312°
2026-04-25 01:25 -36.86573 174.92004 1428 ft 109 kts 314°
2026-04-25 01:25 -36.86035 174.91328 1421 ft 109 kts 313°
2026-04-25 01:26 -36.85525 174.90611 1432 ft 110 kts 309°
2026-04-25 01:26 -36.85063 174.89847 1622 ft 105 kts 301°
2026-04-25 01:26 -36.84736 174.89027 1741 ft 109 kts 289°
2026-04-25 01:26 -36.84509 174.88113 1804 ft 110 kts 285°
2026-04-25 01:27 -36.84299 174.87190 1802 ft 111 kts 284°
2026-04-25 01:27 -36.84108 174.86243 1770 ft 113 kts 282°
2026-04-25 01:27 -36.83935 174.85288 1732 ft 115 kts 279°
2026-04-25 01:28 -36.83699 174.83319 1687 ft 115 kts 276°
2026-04-25 01:28 -36.83604 174.82338 1652 ft 115 kts 275°
2026-04-25 01:28 -36.83509 174.81352 1630 ft 114 kts 276°
2026-04-25 01:28 -36.83435 174.80402 1548 ft 104 kts 257°
2026-04-25 01:29 -36.83505 174.79497 1128 ft 101 kts 256°
2026-04-25 01:29 -36.83452 174.78705 1332 ft 82 kts 281°
2026-04-25 01:29 -36.83279 174.78027 1519 ft 87 kts 288°
2026-04-25 01:29 -36.83084 174.77243 1608 ft 99 kts 284°
2026-04-25 01:30 -36.82988 174.76427 1704 ft 96 kts 269°
2026-04-25 01:30 -36.83080 174.75563 1697 ft 104 kts 248°
2026-04-25 01:30 -36.83419 174.74785 1770 ft 99 kts 228°
2026-04-25 01:30 -36.83927 174.74234 1834 ft 97 kts 206°
2026-04-25 01:31 -36.84563 174.73941 1874 ft 97 kts 189°
2026-04-25 01:31 -36.85233 174.73785 1898 ft 99 kts 185°
2026-04-25 01:31 -36.85937 174.73752 1908 ft 100 kts 174°
2026-04-25 01:31 -36.86612 174.73857 1686 ft 97 kts 169°
2026-04-25 01:32 -36.87244 174.74081 1425 ft 91 kts 158°
2026-04-25 01:32 -36.87758 174.74481 1245 ft 82 kts 139°
2026-04-25 01:32 -36.88113 174.75131 1211 ft 99 kts 110°
2026-04-25 01:32 -36.88382 174.75951 1230 ft 104 kts 112°
2026-04-25 01:33 -36.88415 174.76839 1305 ft 106 kts 66°
2026-04-25 01:33 -36.87908 174.77502 1357 ft 108 kts 32°
2026-04-25 01:33 -36.87214 174.77910 1317 ft 113 kts 21°
2026-04-25 01:33 -36.86470 174.78194 1297 ft 113 kts 14°
2026-04-25 01:34 -36.85694 174.78392 1282 ft 113 kts 11°
2026-04-25 01:34 -36.84904 174.78484 1264 ft 113 kts 359°
2026-04-25 01:34 -36.84142 174.78305 1336 ft 108 kts 340°
2026-04-25 01:34 -36.83577 174.77797 1556 ft 104 kts 305°
2026-04-25 01:35 -36.83228 174.76988 1691 ft 106 kts 291°
2026-04-25 01:35 -36.83057 174.76094 1809 ft 104 kts 270°
2026-04-25 01:35 -36.83170 174.75186 1813 ft 108 kts 244°
2026-04-25 01:35 -36.83647 174.74504 1858 ft 104 kts 206°
2026-04-25 01:36 -36.84338 174.74283 1892 ft 102 kts 177°
2026-04-25 01:36 -36.84998 174.74503 1951 ft 100 kts 150°
2026-04-25 01:36 -36.85587 174.74988 1993 ft 99 kts 141°
2026-04-25 01:36 -36.85973 174.75693 1975 ft 106 kts 101°
2026-04-25 01:37 -36.85828 174.76607 1929 ft 111 kts 65°
2026-04-25 01:37 -36.85391 174.77402 1966 ft 105 kts 55°
2026-04-25 01:37 -36.84946 174.78140 1932 ft 109 kts 56°
2026-04-25 01:37 -36.84505 174.78906 1923 ft 108 kts 58°
2026-04-25 01:38 -36.84079 174.79700 1883 ft 110 kts 58°
2026-04-25 01:38 -36.83611 174.80479 1795 ft 114 kts 54°
2026-04-25 01:38 -36.83114 174.81259 1729 ft 114 kts 53°
2026-04-25 01:38 -36.82601 174.82028 1666 ft 114 kts 53°
2026-04-25 01:39 -36.82116 174.82791 1627 ft 112 kts 55°
2026-04-25 01:39 -36.81659 174.83594 1539 ft 114 kts 60°
2026-04-25 01:39 -36.81344 174.84485 1486 ft 110 kts 75°
2026-04-25 01:39 -36.81206 174.85435 1373 ft 110 kts 84°
2026-04-25 01:40 -36.81115 174.86374 1309 ft 107 kts 83°
2026-04-25 01:40 -36.81021 174.87270 1289 ft 105 kts 83°
2026-04-25 01:40 -36.80893 174.88188 1259 ft 107 kts 82°
2026-04-25 01:40 -36.80776 174.89092 1272 ft 105 kts 82°
2026-04-25 01:41 -36.80671 174.89993 1266 ft 105 kts 83°
2026-04-25 01:41 -36.80563 174.90892 1385 ft 107 kts 83°
2026-04-25 01:41 -36.80504 174.91795 1442 ft 102 kts 89°
2026-04-25 01:41 -36.80516 174.92670 1473 ft 100 kts 94°
2026-04-25 01:42 -36.80568 174.93539 1467 ft 102 kts 96°
2026-04-25 01:42 -36.80663 174.94421 1474 ft 102 kts 100°
2026-04-25 01:42 -36.80794 174.95300 1477 ft 102 kts 102°
2026-04-25 01:42 -36.80960 174.96167 1484 ft 103 kts 105°
2026-04-25 01:43 -36.81177 174.97038 1417 ft 108 kts 110°
2026-04-25 01:43 -36.81432 174.97920 1384 ft 108 kts 110°
2026-04-25 01:43 -36.81702 174.98785 1402 ft 104 kts 111°
2026-04-25 01:43 -36.81959 174.99609 1455 ft 100 kts 112°
2026-04-25 01:44 -36.82229 175.00407 1501 ft 98 kts 113°
2026-04-25 01:44 -36.82486 175.01215 1499 ft 101 kts 111°
2026-04-25 01:44 -36.82716 175.02048 1505 ft 102 kts 108°
2026-04-25 01:44 -36.82925 175.02898 1494 ft 103 kts 108°
2026-04-25 01:45 -36.83143 175.03738 1492 ft 103 kts 107°
2026-04-25 01:45 -36.83359 175.04596 1500 ft 102 kts 110°
2026-04-25 01:45 -36.83609 175.05434 1488 ft 103 kts 111°
2026-04-25 01:45 -36.83847 175.06268 1505 ft 102 kts 107°
2026-04-25 01:46 -36.84020 175.07138 1494 ft 103 kts 101°
2026-04-25 01:46 -36.84081 175.08014 1522 ft 101 kts 93°
2026-04-25 01:46 -36.84132 175.08858 1694 ft 96 kts 95°
2026-04-25 01:46 -36.84192 175.09718 1817 ft 100 kts 96°
2026-04-25 01:47 -36.84368 175.10545 1970 ft 100 kts 123°
2026-04-25 01:47 -36.84879 175.11096 2091 ft 86 kts 146°
2026-04-25 01:47 -36.85368 175.11510 2205 ft 80 kts 143°
2026-04-25 01:47 -36.85817 175.11908 2243 ft 59 kts 146°
2026-04-25 01:48 -36.86257 175.12248 2099 ft 81 kts 144°
2026-04-25 01:48 -36.86702 175.12614 2381 ft 70 kts 149°
2026-04-25 01:48 -36.87150 175.12949 2288 ft 76 kts 148°
2026-04-25 01:48 -36.87603 175.13264 2266 ft 79 kts 153°
2026-04-25 01:49 -36.88160 175.13374 2359 ft 85 kts 180°
2026-04-25 01:49 -36.88702 175.13325 2337 ft 83 kts 188°
2026-04-25 01:49 -36.89206 175.13469 2157 ft 77 kts 112°
2026-04-25 01:49 -36.88921 175.13963 1908 ft 85 kts
2026-04-25 01:50 -36.88537 175.13530 1727 ft 81 kts 269°
2026-04-25 01:50 -36.88849 175.12981 1541 ft 86 kts 216°
2026-04-25 01:50 -36.89413 175.12485 1452 ft 107 kts 211°
2026-04-25 01:50 -36.90057 175.11971 1437 ft 108 kts 212°
2026-04-25 01:51 -36.90674 175.11438 1437 ft 109 kts 216°
2026-04-25 01:51 -36.91289 175.10866 1436 ft 109 kts 214°
2026-04-25 01:51 -36.91899 175.10359 1509 ft 103 kts 211°
2026-04-25 01:51 -36.92509 175.09878 1531 ft 104 kts 211°
2026-04-25 01:52 -36.93135 175.09383 1529 ft 106 kts 212°
2026-04-25 01:52 -36.93751 175.08856 1530 ft 107 kts 216°
2026-04-25 01:52 -36.94353 175.08305 1541 ft 106 kts 214°
2026-04-25 01:52 -36.94957 175.07765 1549 ft 107 kts 214°
2026-04-25 01:53 -36.95515 175.07129 1532 ft 109 kts 226°
2026-04-25 01:53 -36.96032 175.06439 1543 ft 107 kts 226°
2026-04-25 01:53 -36.96545 175.05751 1528 ft 109 kts 225°
2026-04-25 01:53 -36.97090 175.05080 1510 ft 108 kts 224°
2026-04-25 01:54 -36.97597 175.04413 1471 ft 102 kts 226°
2026-04-25 01:54 -36.98072 175.03803 1375 ft 96 kts 225°
2026-04-25 01:54 -36.98518 175.03229 1356 ft 85 kts 225°
2026-04-25 01:54 -36.98915 175.02707 1313 ft 86 kts 221°
2026-04-25 01:55 -36.99368 175.02165 1197 ft 88 kts 223°
2026-04-25 01:55 -36.99793 175.01648 1100 ft 82 kts 226°
2026-04-25 01:55 -37.00171 175.01146 1030 ft 78 kts 226°
2026-04-25 01:55 -37.00543 175.00682 953 ft 73 kts 223°
2026-04-25 01:56 -37.00910 175.00238 869 ft 70 kts 225°
2026-04-25 01:56 -37.01217 174.99849 814 ft 60 kts 224°
2026-04-25 01:56 -37.01496 174.99484 700 ft 59 kts 226°
2026-04-25 01:56 -37.01793 174.99104 562 ft 61 kts 227°
2026-04-25 01:57 -37.02370 174.98370 319 ft 60 kts 226°
2026-04-25 01:57 -37.02655 174.97994 162 ft 58 kts 226°
2026-04-25 01:57 -37.02901 174.97684 110 ft 39 kts 226°
2026-04-25 01:58 -37.03168 174.97342 194 ft 65 kts 226°
2026-04-25 01:58 -37.03505 174.96922 377 ft 71 kts 225°
2026-04-25 01:58 -37.03866 174.96458 565 ft 77 kts 230°
2026-04-25 01:58 -37.04316 174.96166 764 ft 81 kts 165°
2026-04-25 01:59 -37.04821 174.96516 955 ft 87 kts 139°
2026-04-25 01:59 -37.04886 174.97307 913 ft 113 kts 59°
2026-04-25 01:59 -37.04498 174.98102 1085 ft 104 kts 57°
2026-04-25 01:59 -37.04056 174.98782 1160 ft 101 kts 49°
2026-04-25 02:00 -37.03583 174.99443 1203 ft 103 kts 48°
2026-04-25 02:00 -37.03101 175.00029 1159 ft 88 kts 25°
2026-04-25 02:00 -37.02564 174.99873 1006 ft 76 kts 326°
2026-04-25 02:00 -37.02174 174.99512 899 ft 65 kts 319°
2026-04-25 02:01 -37.01889 174.99115 727 ft 62 kts 283°
2026-04-25 02:01 -37.02040 174.98659 560 ft 56 kts 232°
2026-04-25 02:01 -37.02304 174.98306 412 ft 55 kts 227°
2026-04-25 02:01 -37.02566 174.97967 264 ft 54 kts 227°
2026-04-25 02:02 -37.02822 174.97636 125 ft 52 kts 227°
2026-04-25 02:02 -37.03051 174.97342 123 ft 56 kts 227°
2026-04-25 02:02 -37.03344 174.96948 288 ft 67 kts 229°
2026-04-25 02:02 -37.03665 174.96490 483 ft 71 kts 228°
2026-04-25 02:03 -37.03989 174.95998 674 ft 76 kts 227°
2026-04-25 02:03 -37.04445 174.95819 891 ft 79 kts 163°
2026-04-25 02:03 -37.04968 174.96168 1003 ft 93 kts 140°
2026-04-25 02:03 -37.05046 174.96995 1016 ft 112 kts 66°
2026-04-25 02:04 -37.04665 174.97830 1084 ft 107 kts 59°
2026-04-25 02:04 -37.04266 174.98619 1117 ft 106 kts 57°
2026-04-25 02:04 -37.03834 174.99387 1135 ft 107 kts 54°
2026-04-25 02:04 -37.03429 175.00060 1191 ft 80 kts 52°
2026-04-25 02:05 -37.02952 175.00230 1020 ft 76 kts 335°
2026-04-25 02:05 -37.02539 174.99895 905 ft 66 kts 322°
2026-04-25 02:05 -37.02165 174.99551 792 ft 66 kts 321°
2026-04-25 02:05 -37.01856 174.99173 629 ft 62 kts 283°
2026-04-25 02:06 -37.02003 174.98718 488 ft 55 kts 230°
2026-04-25 02:06 -37.02271 174.98364 377 ft 56 kts 227°
2026-04-25 02:06 -37.02538 174.98012 257 ft 54 kts 227°
2026-04-25 02:06 -37.02785 174.97687 141 ft 50 kts 228°
2026-04-25 02:07 -37.02993 174.97417 111 ft 48 kts 226°
2026-04-25 02:07 -37.03272 174.97060 261 ft 62 kts 231°
2026-04-25 02:07 -37.03577 174.96620 442 ft 71 kts 229°
2026-04-25 02:07 -37.03921 174.96133 613 ft 79 kts 227°
2026-04-25 02:08 -37.04412 174.95872 829 ft 82 kts 162°
2026-04-25 02:08 -37.04914 174.96237 1024 ft 86 kts 145°
2026-04-25 02:08 -37.05000 174.96997 1047 ft 102 kts 65°
2026-04-25 02:08 -37.04966 174.97087 1057 ft 102 kts 64°
2026-04-25 02:12 -37.04743 174.97617 1092 ft 104 kts 62°
2026-04-25 02:13 -37.04348 174.98379 1164 ft 104 kts 53°
2026-04-25 02:13 -37.03904 174.99083 1248 ft 103 kts 50°
2026-04-25 02:13 -37.03421 174.99760 1285 ft 107 kts 47°
2026-04-25 02:13 -37.02892 175.00264 1138 ft 95 kts
2026-04-25 02:14 -37.02358 174.99965 959 ft 84 kts 314°
2026-04-25 02:14 -37.01975 174.99477 833 ft 71 kts 315°
2026-04-25 02:14 -37.01800 174.98973 660 ft 65 kts 245°
2026-04-25 02:14 -37.02076 174.98601 535 ft 53 kts 227°
2026-04-25 02:15 -37.02345 174.98257 377 ft 57 kts 226°
2026-04-25 02:15 -37.02616 174.97906 229 ft 55 kts 226°
2026-04-25 02:15 -37.02871 174.97577 112 ft 47 kts 227°
2026-04-25 02:15 -37.03114 174.97258 172 ft 60 kts 226°
2026-04-25 02:16 -37.03419 174.96845 363 ft 66 kts 232°
2026-04-25 02:16 -37.03718 174.96385 573 ft 70 kts 231°
2026-04-25 02:16 -37.04134 174.96030 746 ft 79 kts 175°
2026-04-25 02:16 -37.04632 174.96370 909 ft 88 kts 141°
2026-04-25 02:17 -37.04927 174.97009 1047 ft 99 kts 80°
2026-04-25 02:17 -37.04602 174.97807 1034 ft 109 kts 58°
2026-04-25 02:17 -37.04190 174.98601 1159 ft 102 kts 53°
2026-04-25 02:17 -37.03759 174.99266 1228 ft 89 kts 53°
2026-04-25 02:18 -37.03314 174.99654 1150 ft 74 kts 30°
2026-04-25 02:18 -37.02868 174.99907 1013 ft 70 kts
2026-04-25 02:18 -37.02432 174.99705 828 ft 70 kts 304°
2026-04-25 02:18 -37.02288 174.99179 694 ft 59 kts 274°
2026-04-25 02:19 -37.02276 174.98668 512 ft 59 kts 261°
2026-04-25 02:19 -37.02473 174.98225 313 ft 59 kts 229°
2026-04-25 02:19 -37.02764 174.97856 124 ft 58 kts 227°
2026-04-25 02:19 -37.02988 174.97572 110 ft 35 kts 227°
2026-04-25 02:20 -37.03107 174.97418 109 ft 11 kts 224°
2026-04-25 02:20 -37.03142 174.97403 109 ft 3 kts 148°
2026-04-25 02:20 -37.03169 174.97430 109 ft 6 kts 149°
2026-04-25 02:20 -37.03199 174.97403 109 ft 5 kts 225°
2026-04-25 02:21 -37.03222 174.97376 109 ft 4 kts 224°
2026-04-25 02:21 -37.03252 174.97336 110 ft 6 kts 226°
2026-04-25 02:21 -37.03282 174.97301 109 ft 5 kts 227°
2026-04-25 02:21 -37.03302 174.97272 109 ft 3 kts 225°
2026-04-25 02:22 -37.03327 174.97241 109 ft 7 kts 225°
2026-04-25 02:22 -37.03370 174.97185 109 ft 10 kts 223°
2026-04-25 02:22 -37.03424 174.97118 109 ft 10 kts 225°
2026-04-25 02:22 -37.03459 174.97072 109 ft 5 kts 222°
2026-04-25 02:23 -37.03489 174.97035 109 ft 6 kts 223°
2026-04-25 02:23 -37.03520 174.96997 109 ft 6 kts 226°
2026-04-25 02:23 -37.03550 174.96956 109 ft 6 kts 227°
2026-04-25 02:23 -37.03579 174.96954 109 ft 3 kts 137°
2026-04-25 02:24 -37.03597 174.96977 109 ft 4 kts 136°
2026-04-25 02:24 -37.03621 174.97005 109 ft 1 kts 146°
2026-04-25 02:24 -37.03627 174.97000 109 ft 1 kts 227°
2026-04-25 02:24 -37.03630 174.96995 109 ft 0 kts 225°